createdAt,value
2016-11-12T00:00:05.826Z,102036
2016-11-12T00:00:24.762Z,102042
2016-11-12T00:00:37.291Z,102033
2016-11-12T00:00:52.619Z,102039
2016-11-12T00:01:04.934Z,102036
2016-11-12T00:01:23.141Z,102036
2016-11-12T00:01:35.559Z,102024
2016-11-12T00:01:53.703Z,102036
2016-11-12T00:02:08.819Z,102030
2016-11-12T00:02:34.105Z,102024
2016-11-12T00:02:49.598Z,102040
2016-11-12T00:03:07.723Z,102037
2016-11-12T00:03:25.964Z,102033
2016-11-12T00:03:38.297Z,102039
2016-11-12T00:03:50.621Z,102042
2016-11-12T00:04:03.012Z,102039
2016-11-12T00:04:18.290Z,102032
2016-11-12T00:04:33.595Z,102025
2016-11-12T00:04:46.044Z,102041
2016-11-12T00:04:58.419Z,102031
2016-11-12T00:05:17.157Z,102028
2016-11-12T00:05:33.109Z,102025
2016-11-12T00:05:55.279Z,102037
2016-11-12T00:06:13.381Z,102032
2016-11-12T00:06:31.816Z,102035
2016-11-12T00:06:48.721Z,102032
2016-11-12T00:07:11.150Z,102029
2016-11-12T00:07:26.877Z,102036
2016-11-12T00:07:44.662Z,102033
2016-11-12T00:07:59.284Z,102040
2016-11-12T00:08:22.258Z,102034
2016-11-12T00:08:41.390Z,102041
2016-11-12T00:08:58.606Z,102032
2016-11-12T00:09:15.461Z,102038
2016-11-12T00:09:30.987Z,102026
2016-11-12T00:09:54.128Z,102036
2016-11-12T00:10:10.193Z,102042
2016-11-12T00:10:35.273Z,102039
2016-11-12T00:10:53.302Z,102036
2016-11-12T00:11:13.020Z,102027
2016-11-12T00:11:32.239Z,102034
2016-11-12T00:11:45.626Z,102034
2016-11-12T00:12:04.179Z,102037
2016-11-12T00:12:25.139Z,102031
2016-11-12T00:12:50.630Z,102031
2016-11-12T00:13:09.458Z,102038
2016-11-12T00:13:22.814Z,102029
2016-11-12T00:13:43.890Z,102029
2016-11-12T00:14:05.576Z,102029
2016-11-12T00:14:22.911Z,102038
2016-11-12T00:14:42.052Z,102038
2016-11-12T00:14:59.406Z,102036
2016-11-12T00:15:18.734Z,102033
2016-11-12T00:15:33.651Z,102033
2016-11-12T00:15:51.353Z,102033
2016-11-12T00:16:04.133Z,102033
2016-11-12T00:16:23.135Z,102049
2016-11-12T00:16:40.660Z,102030
2016-11-12T00:17:06.991Z,102027
2016-11-12T00:17:24.947Z,102037
2016-11-12T00:17:44.445Z,102037
2016-11-12T00:18:01.593Z,102040
2016-11-12T00:18:24.047Z,102034
2016-11-12T00:18:42.121Z,102040
2016-11-12T00:19:01.524Z,102031
2016-11-12T00:19:20.400Z,102031
2016-11-12T00:19:40.209Z,102034
2016-11-12T00:19:55.492Z,102043
2016-11-12T00:20:13.655Z,102028
2016-11-12T00:20:29.637Z,102025
2016-11-12T00:20:44.839Z,102034
2016-11-12T00:21:06.008Z,102043
2016-11-12T00:21:21.490Z,102039
2016-11-12T00:21:37.013Z,102036
2016-11-12T00:21:58.040Z,102042
2016-11-12T00:22:13.863Z,102032
2016-11-12T00:22:29.240Z,102038
2016-11-12T00:22:44.453Z,102034
2016-11-12T00:23:02.591Z,102037
2016-11-12T00:23:17.973Z,102024
2016-11-12T00:23:33.903Z,102033
2016-11-12T00:23:49.253Z,102033
2016-11-12T00:24:04.491Z,102036
2016-11-12T00:24:19.766Z,102035
2016-11-12T00:24:37.828Z,102029
2016-11-12T00:24:56.049Z,102025
2016-11-12T00:25:08.349Z,102025
2016-11-12T00:25:26.494Z,102037
2016-11-12T00:25:41.867Z,102027
2016-11-12T00:26:00.107Z,102033
2016-11-12T00:26:15.435Z,102015
2016-11-12T00:26:30.628Z,102036
2016-11-12T00:26:46.134Z,102036
2016-11-12T00:27:01.480Z,102042
2016-11-12T00:27:16.789Z,102029
2016-11-12T00:27:32.319Z,102039
2016-11-12T00:27:47.690Z,102035
2016-11-12T00:28:00.196Z,102035
2016-11-12T00:28:15.437Z,102026
2016-11-12T00:28:27.957Z,102044
2016-11-12T00:28:45.979Z,102028
2016-11-12T00:28:58.899Z,102022
2016-11-12T00:29:14.484Z,102038
2016-11-12T00:29:29.765Z,102041
2016-11-12T00:29:53.771Z,102031
2016-11-12T00:30:06.222Z,102043
2016-11-12T00:30:18.732Z,102037
2016-11-12T00:30:36.627Z,102025
2016-11-12T00:30:49.068Z,102037
2016-11-12T00:31:04.421Z,102034
2016-11-12T00:31:17.443Z,102040
2016-11-12T00:31:32.829Z,102037
2016-11-12T00:31:46.409Z,102024
2016-11-12T00:31:58.669Z,102024
2016-11-12T00:32:14.328Z,102030
2016-11-12T00:32:26.629Z,102040
2016-11-12T00:32:42.580Z,102030
2016-11-12T00:32:58.068Z,102046
2016-11-12T00:33:16.996Z,102030
2016-11-12T00:33:35.942Z,102027
2016-11-12T00:33:54.471Z,102036
2016-11-12T00:34:09.686Z,102042
2016-11-12T00:34:24.998Z,102033
2016-11-12T00:34:40.270Z,102033
2016-11-12T00:34:55.438Z,102036
2016-11-12T00:35:13.489Z,102036
2016-11-12T00:35:26.160Z,102042
2016-11-12T00:35:47.185Z,102036
2016-11-12T00:35:59.523Z,102036
2016-11-12T00:36:14.940Z,102036
2016-11-12T00:36:36.238Z,102042
2016-11-12T00:36:51.345Z,102036
2016-11-12T00:37:03.785Z,102039
2016-11-12T00:37:19.084Z,102042
2016-11-12T00:37:31.482Z,102032
2016-11-12T00:37:43.882Z,102032
2016-11-12T00:37:56.364Z,102034
2016-11-12T00:38:17.078Z,102032
2016-11-12T00:38:32.298Z,102044
2016-11-12T00:38:50.505Z,102022
2016-11-12T00:39:05.807Z,102037
2016-11-12T00:39:24.061Z,102027
2016-11-12T00:39:36.448Z,102030
2016-11-12T00:39:48.842Z,102029
2016-11-12T00:40:04.262Z,102035
2016-11-12T00:40:19.286Z,102029
2016-11-12T00:40:37.625Z,102025
2016-11-12T00:40:55.793Z,102022
2016-11-12T00:41:08.072Z,102031
2016-11-12T00:41:20.715Z,102036
2016-11-12T00:41:38.818Z,102024
2016-11-12T00:41:51.214Z,102026
2016-11-12T00:42:03.610Z,102032
2016-11-12T00:42:15.938Z,102029
2016-11-12T00:42:31.230Z,102035
2016-11-12T00:42:43.511Z,102031
2016-11-12T00:42:58.834Z,102044
2016-11-12T00:43:11.213Z,102043
2016-11-12T00:43:26.422Z,102021
2016-11-12T00:43:38.703Z,102034
2016-11-12T00:43:53.998Z,102033
2016-11-12T00:44:09.778Z,102036
2016-11-12T00:44:22.203Z,102033
2016-11-12T00:44:40.315Z,102039
2016-11-12T00:44:55.502Z,102035
2016-11-12T00:45:07.792Z,102045
2016-11-12T00:45:23.015Z,102035
2016-11-12T00:45:38.318Z,102041
2016-11-12T00:45:50.667Z,102038
2016-11-12T00:46:05.844Z,102041
2016-11-12T00:46:18.090Z,102044
2016-11-12T00:46:33.350Z,102034
2016-11-12T00:46:45.709Z,102046
2016-11-12T00:47:00.914Z,102043
2016-11-12T00:47:22.004Z,102036
2016-11-12T00:47:34.309Z,102052
2016-11-12T00:47:46.718Z,102049
2016-11-12T00:48:03.311Z,102042
2016-11-12T00:48:21.653Z,102048
2016-11-12T00:48:39.875Z,102039
2016-11-12T00:48:58.049Z,102039
2016-11-12T00:49:10.443Z,102041
2016-11-12T00:49:23.063Z,102041
2016-11-12T00:49:38.393Z,102047
2016-11-12T00:49:56.750Z,102053
2016-11-12T00:50:12.329Z,102050
2016-11-12T00:50:28.798Z,102047
2016-11-12T00:50:46.898Z,102050
2016-11-12T00:51:08.075Z,102046
2016-11-12T00:51:26.341Z,102055
2016-11-12T00:51:41.653Z,102037
2016-11-12T00:51:59.938Z,102061
2016-11-12T00:52:15.210Z,102052
2016-11-12T00:52:30.407Z,102042
2016-11-12T00:52:48.389Z,102048
2016-11-12T00:53:03.788Z,102036
2016-11-12T00:53:19.036Z,102051
2016-11-12T00:53:31.546Z,102042
2016-11-12T00:53:49.684Z,102045
2016-11-12T00:54:04.984Z,102048
2016-11-12T00:54:17.208Z,102045
2016-11-12T00:54:29.698Z,102045
2016-11-12T00:54:42.193Z,102063
2016-11-12T00:54:57.452Z,102038
2016-11-12T00:55:09.938Z,102053
2016-11-12T00:55:25.124Z,102047
2016-11-12T00:55:40.399Z,102041
2016-11-12T00:55:58.650Z,102038
2016-11-12T00:56:16.787Z,102047
2016-11-12T00:56:37.857Z,102050
2016-11-12T00:56:56.078Z,102043
2016-11-12T00:57:08.370Z,102040
2016-11-12T00:57:23.458Z,102046
2016-11-12T00:57:38.797Z,102052
2016-11-12T00:57:56.934Z,102064
2016-11-12T00:58:12.034Z,102046
2016-11-12T00:58:24.393Z,102046
2016-11-12T00:58:39.611Z,102049
2016-11-12T00:58:52.072Z,102049
2016-11-12T00:59:04.340Z,102055
2016-11-12T00:59:19.717Z,102042
2016-11-12T00:59:35.032Z,102051
2016-11-12T00:59:53.308Z,102033
2016-11-12T01:00:08.468Z,102048
2016-11-12T01:00:23.678Z,102042
2016-11-12T01:00:38.998Z,102060
2016-11-12T01:00:57.172Z,102048
2016-11-12T01:01:15.288Z,102038
2016-11-12T01:01:30.551Z,102057
2016-11-12T01:01:42.858Z,102038
2016-11-12T01:01:58.093Z,102044
2016-11-12T01:02:13.295Z,102066
2016-11-12T01:02:31.479Z,102050
2016-11-12T01:02:46.639Z,102053
2016-11-12T01:02:59.033Z,102053
2016-11-12T01:03:14.317Z,102044
2016-11-12T01:03:29.566Z,102059
2016-11-12T01:03:47.773Z,102046
2016-11-12T01:04:03.059Z,102046
2016-11-12T01:04:21.096Z,102052
2016-11-12T01:04:36.283Z,102046
2016-11-12T01:04:48.556Z,102052
2016-11-12T01:05:06.628Z,102055
2016-11-12T01:05:24.801Z,102061
2016-11-12T01:05:37.256Z,102043
2016-11-12T01:05:52.573Z,102046
2016-11-12T01:06:10.554Z,102058
2016-11-12T01:06:23.030Z,102051
2016-11-12T01:06:35.251Z,102036
2016-11-12T01:06:53.434Z,102048
2016-11-12T01:07:08.844Z,102048
2016-11-12T01:07:21.185Z,102057
2016-11-12T01:07:36.407Z,102042
2016-11-12T01:07:51.676Z,102054
2016-11-12T01:08:06.947Z,102048
2016-11-12T01:08:19.427Z,102042
2016-11-12T01:08:34.727Z,102041
2016-11-12T01:08:52.939Z,102047
2016-11-12T01:09:08.308Z,102044
2016-11-12T01:09:23.759Z,102044
2016-11-12T01:09:38.839Z,102050
2016-11-12T01:09:54.222Z,102047
2016-11-12T01:10:09.610Z,102053
2016-11-12T01:10:21.985Z,102038
2016-11-12T01:10:37.177Z,102047
2016-11-12T01:10:52.616Z,102047
2016-11-12T01:11:07.980Z,102044
2016-11-12T01:11:20.457Z,102037
2016-11-12T01:11:35.668Z,102053
2016-11-12T01:11:50.929Z,102046
2016-11-12T01:12:08.976Z,102043
2016-11-12T01:12:24.303Z,102040
2016-11-12T01:12:42.503Z,102052
2016-11-12T01:12:57.717Z,102043
2016-11-12T01:13:16.100Z,102043
2016-11-12T01:13:34.315Z,102049
2016-11-12T01:13:52.502Z,102040
2016-11-12T01:14:10.774Z,102033
2016-11-12T01:14:26.079Z,102042
2016-11-12T01:14:38.349Z,102042
2016-11-12T01:14:56.461Z,102039
2016-11-12T01:15:08.748Z,102039
2016-11-12T01:15:24.022Z,102054
2016-11-12T01:15:39.351Z,102042
2016-11-12T01:15:51.701Z,102048
2016-11-12T01:16:07.010Z,102045
2016-11-12T01:16:22.321Z,102048
2016-11-12T01:16:34.623Z,102060
2016-11-12T01:16:52.759Z,102048
2016-11-12T01:17:08.107Z,102051
2016-11-12T01:17:20.574Z,102048
2016-11-12T01:17:35.965Z,102044
2016-11-12T01:17:54.151Z,102038
2016-11-12T01:18:09.783Z,102041
2016-11-12T01:18:22.159Z,102053
2016-11-12T01:18:40.279Z,102038
2016-11-12T01:19:01.348Z,102053
2016-11-12T01:19:16.697Z,102047
2016-11-12T01:19:32.023Z,102050
2016-11-12T01:19:44.548Z,102041
2016-11-12T01:19:56.835Z,102050
2016-11-12T01:20:12.259Z,102040
2016-11-12T01:20:30.485Z,102046
2016-11-12T01:20:45.604Z,102040
2016-11-12T01:20:57.925Z,102046
2016-11-12T01:21:13.294Z,102043
2016-11-12T01:21:31.431Z,102046
2016-11-12T01:21:46.683Z,102028
2016-11-12T01:22:04.991Z,102046
2016-11-12T01:22:18.473Z,102043
2016-11-12T01:22:36.422Z,102049
2016-11-12T01:22:54.515Z,102049
2016-11-12T01:23:12.616Z,102049
2016-11-12T01:23:25.130Z,102040
2016-11-12T01:23:40.542Z,102037
2016-11-12T01:23:52.819Z,102034
2016-11-12T01:24:08.107Z,102046
2016-11-12T01:24:26.208Z,102036
2016-11-12T01:24:44.384Z,102036
2016-11-12T01:24:59.725Z,102042
2016-11-12T01:25:17.838Z,102049
2016-11-12T01:25:32.886Z,102061
2016-11-12T01:25:45.235Z,102042
2016-11-12T01:26:00.668Z,102045
2016-11-12T01:26:21.705Z,102045
2016-11-12T01:26:37.111Z,102048
2016-11-12T01:26:58.236Z,102061
2016-11-12T01:27:13.476Z,102051
2016-11-12T01:27:28.635Z,102048
2016-11-12T01:27:47.094Z,102048
2016-11-12T01:28:02.260Z,102039
2016-11-12T01:28:14.608Z,102051
2016-11-12T01:28:27.044Z,102055
2016-11-12T01:28:42.161Z,102058
2016-11-12T01:28:54.461Z,102042
2016-11-12T01:29:09.655Z,102048
2016-11-12T01:29:24.973Z,102048
2016-11-12T01:29:43.092Z,102064
2016-11-12T01:29:55.586Z,102055
2016-11-12T01:30:13.801Z,102046
2016-11-12T01:30:28.927Z,102046
2016-11-12T01:30:44.377Z,102052
2016-11-12T01:30:59.694Z,102052
2016-11-12T01:31:14.851Z,102049
2016-11-12T01:31:27.122Z,102052
2016-11-12T01:31:39.425Z,102049
2016-11-12T01:31:51.829Z,102049
2016-11-12T01:32:04.349Z,102058
2016-11-12T01:32:19.467Z,102052
2016-11-12T01:32:34.838Z,102064
2016-11-12T01:32:52.954Z,102045
2016-11-12T01:33:14.033Z,102046
2016-11-12T01:33:32.167Z,102046
2016-11-12T01:33:48.187Z,102046
2016-11-12T01:34:03.434Z,102049
2016-11-12T01:34:18.704Z,102046
2016-11-12T01:34:34.016Z,102052
2016-11-12T01:34:55.110Z,102046
2016-11-12T01:35:07.563Z,102046
2016-11-12T01:35:28.672Z,102036
2016-11-12T01:35:43.957Z,102040
2016-11-12T01:35:59.303Z,102042
2016-11-12T01:36:11.610Z,102052
2016-11-12T01:36:24.006Z,102043
2016-11-12T01:36:42.251Z,102043
2016-11-12T01:36:57.462Z,102049
2016-11-12T01:37:09.809Z,102049
2016-11-12T01:37:25.226Z,102033
2016-11-12T01:37:40.497Z,102043
2016-11-12T01:37:52.821Z,102046
2016-11-12T01:38:08.085Z,102046
2016-11-12T01:38:20.194Z,102040
2016-11-12T01:38:35.509Z,102037
2016-11-12T01:38:48.105Z,102049
2016-11-12T01:39:00.435Z,102052
2016-11-12T01:39:18.674Z,102040
2016-11-12T01:39:31.215Z,102046
2016-11-12T01:39:43.491Z,102049
2016-11-12T01:39:55.755Z,102039
2016-11-12T01:40:08.306Z,102043
2016-11-12T01:40:29.200Z,102049
2016-11-12T01:40:44.290Z,102036
2016-11-12T01:40:56.698Z,102046
2016-11-12T01:41:14.803Z,102052
2016-11-12T01:41:29.997Z,102042
2016-11-12T01:41:42.411Z,102052
2016-11-12T01:41:57.774Z,102042
2016-11-12T01:42:10.160Z,102039
2016-11-12T01:42:25.361Z,102042
2016-11-12T01:42:40.626Z,102042
2016-11-12T01:42:52.993Z,102042
2016-11-12T01:43:08.222Z,102027
2016-11-12T01:43:23.436Z,102036
2016-11-12T01:43:58.183Z,102045
2016-11-12T01:44:10.587Z,102045
2016-11-12T01:44:25.948Z,102036
2016-11-12T01:44:41.156Z,102055
2016-11-12T01:44:53.633Z,102045
2016-11-12T01:45:06.111Z,102045
2016-11-12T01:45:21.274Z,102039
2016-11-12T01:45:42.445Z,102030
2016-11-12T01:45:54.739Z,102039
2016-11-12T01:46:10.163Z,102042
2016-11-12T01:46:25.356Z,102036
2016-11-12T01:46:40.647Z,102042
2016-11-12T01:46:58.692Z,102039
2016-11-12T01:47:11.079Z,102027
2016-11-12T01:47:26.242Z,102042
2016-11-12T01:47:41.469Z,102017
2016-11-12T01:47:56.718Z,102030
2016-11-12T01:48:15.998Z,102045
2016-11-12T01:48:28.210Z,102048
2016-11-12T01:48:46.407Z,102033
2016-11-12T01:48:58.744Z,102045
2016-11-12T01:49:14.047Z,102033
2016-11-12T01:49:29.307Z,102029
2016-11-12T01:49:44.575Z,102054
2016-11-12T01:49:57.068Z,102039
2016-11-12T01:50:09.439Z,102045
2016-11-12T01:50:21.880Z,102048
2016-11-12T01:50:37.279Z,102026
2016-11-12T01:50:49.745Z,102057
2016-11-12T01:51:07.768Z,102033
2016-11-12T01:51:20.853Z,102033
2016-11-12T01:51:39.226Z,102042
2016-11-12T01:51:57.558Z,102045
2016-11-12T01:52:09.932Z,102051
2016-11-12T01:52:28.193Z,102032
2016-11-12T01:52:43.335Z,102035
2016-11-12T01:52:55.637Z,102032
2016-11-12T01:53:08.109Z,102032
2016-11-12T01:53:20.606Z,102044
2016-11-12T01:53:38.898Z,102044
2016-11-12T01:53:51.283Z,102029
2016-11-12T01:54:03.559Z,102041
2016-11-12T01:54:21.697Z,102035
2016-11-12T01:54:40.012Z,102038
2016-11-12T01:54:52.434Z,102041
2016-11-12T01:55:04.687Z,102032
2016-11-12T01:55:19.941Z,102041
2016-11-12T01:55:35.261Z,102038
2016-11-12T01:55:53.357Z,102035
2016-11-12T01:56:14.546Z,102035
2016-11-12T01:56:32.669Z,102026
2016-11-12T01:56:47.844Z,102041
2016-11-12T01:57:06.010Z,102032
2016-11-12T01:57:18.322Z,102035
2016-11-12T01:57:33.597Z,102047
2016-11-12T01:57:48.838Z,102041
2016-11-12T01:58:04.009Z,102044
2016-11-12T01:58:16.427Z,102047
2016-11-12T01:58:31.525Z,102035
2016-11-12T01:58:43.885Z,102044
2016-11-12T01:58:59.254Z,102038
2016-11-12T01:59:11.579Z,102041
2016-11-12T01:59:26.862Z,102041
2016-11-12T01:59:42.186Z,102025
2016-11-12T01:59:57.676Z,102038
2016-11-12T02:00:12.953Z,102031
2016-11-12T02:00:34.109Z,102035
2016-11-12T02:00:49.277Z,102041
2016-11-12T02:01:04.565Z,102047
2016-11-12T02:01:16.963Z,102034
2016-11-12T02:01:29.609Z,102037
2016-11-12T02:01:47.721Z,102025
2016-11-12T02:02:02.930Z,102040
2016-11-12T02:02:18.210Z,102031
2016-11-12T02:02:30.485Z,102040
2016-11-12T02:02:45.923Z,102037
2016-11-12T02:03:01.210Z,102040
2016-11-12T02:03:19.323Z,102046
2016-11-12T02:03:31.631Z,102034
2016-11-12T02:03:46.972Z,102040
2016-11-12T02:04:02.085Z,102034
2016-11-12T02:04:20.814Z,102022
2016-11-12T02:04:36.067Z,102040
2016-11-12T02:04:51.372Z,102040
2016-11-12T02:05:06.749Z,102043
2016-11-12T02:05:22.031Z,102034
2016-11-12T02:05:34.306Z,102046
2016-11-12T02:05:49.814Z,102040
2016-11-12T02:06:08.061Z,102052
2016-11-12T02:06:23.386Z,102043
2016-11-12T02:06:35.724Z,102037
2016-11-12T02:06:53.885Z,102040
2016-11-12T02:07:06.289Z,102037
2016-11-12T02:07:19.429Z,102037
2016-11-12T02:07:34.938Z,102034
2016-11-12T02:07:50.193Z,102040
2016-11-12T02:08:05.389Z,102049
2016-11-12T02:08:20.674Z,102043
2016-11-12T02:08:33.075Z,102036
2016-11-12T02:08:48.496Z,102040
2016-11-12T02:09:00.996Z,102036
2016-11-12T02:09:21.945Z,102055
2016-11-12T02:09:37.178Z,102046
2016-11-12T02:09:58.301Z,102046
2016-11-12T02:10:16.412Z,102042
2016-11-12T02:10:31.591Z,102036
2016-11-12T02:10:48.134Z,102030
2016-11-12T02:11:12.102Z,102052
2016-11-12T02:11:27.298Z,102034
2016-11-12T02:11:42.658Z,102049
2016-11-12T02:11:57.875Z,102052
2016-11-12T02:12:16.171Z,102049
2016-11-12T02:12:34.338Z,102039
2016-11-12T02:12:49.664Z,102052
2016-11-12T02:13:04.820Z,102043
2016-11-12T02:13:20.185Z,102042
2016-11-12T02:13:35.229Z,102024
2016-11-12T02:13:47.816Z,102054
2016-11-12T02:14:03.008Z,102051
2016-11-12T02:14:21.072Z,102051
2016-11-12T02:14:39.170Z,102048
2016-11-12T02:14:57.311Z,102064
2016-11-12T02:15:12.366Z,102042
2016-11-12T02:15:24.717Z,102036
2016-11-12T02:15:46.504Z,102036
2016-11-12T02:16:07.467Z,102045
2016-11-12T02:16:22.740Z,102030
2016-11-12T02:16:38.132Z,102042
2016-11-12T02:16:50.438Z,102039
2016-11-12T02:17:05.685Z,102042
2016-11-12T02:17:20.979Z,102039
2016-11-12T02:17:36.169Z,102048
2016-11-12T02:17:51.375Z,102048
2016-11-12T02:18:04.539Z,102048
2016-11-12T02:18:16.895Z,102036
2016-11-12T02:18:29.370Z,102051
2016-11-12T02:18:47.543Z,102048
2016-11-12T02:18:59.949Z,102042
2016-11-12T02:19:12.382Z,102048
2016-11-12T02:19:33.604Z,102045
2016-11-12T02:19:48.874Z,102048
2016-11-12T02:20:04.079Z,102048
2016-11-12T02:20:19.350Z,102045
2016-11-12T02:20:31.765Z,102054
2016-11-12T02:20:44.186Z,102057
2016-11-12T02:20:59.487Z,102033
2016-11-12T02:21:12.001Z,102054
2016-11-12T02:21:27.334Z,102054
2016-11-12T02:21:42.566Z,102054
2016-11-12T02:21:57.649Z,102051
2016-11-12T02:22:10.027Z,102045
2016-11-12T02:22:22.328Z,102057
2016-11-12T02:22:37.649Z,102048
2016-11-12T02:22:52.995Z,102057
2016-11-12T02:23:11.149Z,102060
2016-11-12T02:23:23.508Z,102048
2016-11-12T02:23:35.738Z,102048
2016-11-12T02:23:48.137Z,102042
2016-11-12T02:24:06.289Z,102048
2016-11-12T02:24:21.585Z,102060
2016-11-12T02:24:36.757Z,102060
2016-11-12T02:24:52.007Z,102042
2016-11-12T02:25:04.334Z,102048
2016-11-12T02:25:16.676Z,102045
2016-11-12T02:25:31.927Z,102051
2016-11-12T02:25:52.925Z,102045
2016-11-12T02:26:08.351Z,102042
2016-11-12T02:26:26.532Z,102048
2016-11-12T02:26:47.941Z,102060
2016-11-12T02:27:00.227Z,102060
2016-11-12T02:27:12.630Z,102051
2016-11-12T02:27:27.831Z,102044
2016-11-12T02:27:45.917Z,102054
2016-11-12T02:28:01.216Z,102044
2016-11-12T02:28:14.461Z,102056
2016-11-12T02:28:26.857Z,102047
2016-11-12T02:28:42.204Z,102041
2016-11-12T02:28:54.826Z,102047
2016-11-12T02:29:10.111Z,102047
2016-11-12T02:29:25.467Z,102053
2016-11-12T02:29:37.739Z,102050
2016-11-12T02:29:53.184Z,102053
2016-11-12T02:30:16.803Z,102038
2016-11-12T02:30:39.321Z,102059
2016-11-12T02:30:54.508Z,102044
2016-11-12T02:31:09.622Z,102047
2016-11-12T02:31:27.945Z,102050
2016-11-12T02:31:43.280Z,102050
2016-11-12T02:31:55.505Z,102059
2016-11-12T02:32:07.907Z,102038
2016-11-12T02:32:23.221Z,102053
2016-11-12T02:32:38.436Z,102050
2016-11-12T02:33:01.521Z,102053
2016-11-12T02:33:19.935Z,102056
2016-11-12T02:33:35.126Z,102050
2016-11-12T02:33:47.484Z,102053
2016-11-12T02:34:05.643Z,102056
2016-11-12T02:34:18.063Z,102053
2016-11-12T02:34:33.297Z,102050
2016-11-12T02:34:51.547Z,102050
2016-11-12T02:35:06.656Z,102053
2016-11-12T02:35:21.963Z,102056
2016-11-12T02:35:37.315Z,102050
2016-11-12T02:35:49.652Z,102050
2016-11-12T02:36:10.656Z,102047
2016-11-12T02:36:23.177Z,102059
2016-11-12T02:36:35.466Z,102059
2016-11-12T02:36:53.707Z,102047
2016-11-12T02:37:06.110Z,102059
2016-11-12T02:37:24.246Z,102053
2016-11-12T02:37:36.539Z,102050
2016-11-12T02:37:51.895Z,102047
2016-11-12T02:38:15.847Z,102059
2016-11-12T02:38:34.077Z,102062
2016-11-12T02:38:46.467Z,102059
2016-11-12T02:38:58.820Z,102068
2016-11-12T02:39:13.903Z,102065
2016-11-12T02:39:29.169Z,102050
2016-11-12T02:39:44.477Z,102053
2016-11-12T02:39:58.074Z,102065
2016-11-12T02:40:16.235Z,102062
2016-11-12T02:40:34.444Z,102068
2016-11-12T02:40:46.772Z,102062
2016-11-12T02:41:02.224Z,102053
2016-11-12T02:41:17.417Z,102062
2016-11-12T02:41:31.505Z,102071
2016-11-12T02:41:49.833Z,102055
2016-11-12T02:42:05.032Z,102062
2016-11-12T02:42:20.270Z,102055
2016-11-12T02:42:32.779Z,102071
2016-11-12T02:42:53.791Z,102065
2016-11-12T02:43:08.931Z,102058
2016-11-12T02:43:24.226Z,102061
2016-11-12T02:43:39.416Z,102058
2016-11-12T02:43:54.465Z,102067
2016-11-12T02:44:09.874Z,102071
2016-11-12T02:44:27.994Z,102064
2016-11-12T02:44:46.164Z,102067
2016-11-12T02:44:58.369Z,102070
2016-11-12T02:45:19.528Z,102058
2016-11-12T02:45:34.775Z,102067
2016-11-12T02:45:47.078Z,102064
2016-11-12T02:45:59.430Z,102064
2016-11-12T02:46:17.564Z,102061
2016-11-12T02:46:38.785Z,102061
2016-11-12T02:46:56.825Z,102064
2016-11-12T02:47:09.292Z,102061
2016-11-12T02:47:21.690Z,102067
2016-11-12T02:47:37.021Z,102073
2016-11-12T02:47:55.135Z,102067
2016-11-12T02:48:14.950Z,102067
2016-11-12T02:48:35.824Z,102061
2016-11-12T02:48:48.039Z,102070
2016-11-12T02:49:00.605Z,102067
2016-11-12T02:49:18.710Z,102064
2016-11-12T02:49:36.787Z,102073
2016-11-12T02:49:57.848Z,102067
2016-11-12T02:50:16.044Z,102076
2016-11-12T02:50:31.357Z,102070
2016-11-12T02:50:46.655Z,102076
2016-11-12T02:51:04.805Z,102052
2016-11-12T02:51:20.198Z,102061
2016-11-12T02:51:32.658Z,102055
2016-11-12T02:51:47.921Z,102055
2016-11-12T02:52:06.202Z,102061
2016-11-12T02:52:18.595Z,102058
2016-11-12T02:52:33.808Z,102067
2016-11-12T02:52:49.135Z,102067
2016-11-12T02:53:07.252Z,102073
2016-11-12T02:53:19.440Z,102070
2016-11-12T02:53:31.940Z,102061
2016-11-12T02:53:53.054Z,102061
2016-11-12T02:54:58.852Z,102067
2016-11-12T02:55:17.184Z,102061
2016-11-12T02:55:32.665Z,102073
2016-11-12T02:55:48.007Z,102079
2016-11-12T02:56:11.013Z,102064
2016-11-12T02:56:26.177Z,102070
2016-11-12T02:56:41.521Z,102073
2016-11-12T02:56:56.842Z,102060
2016-11-12T02:57:09.097Z,102072
2016-11-12T02:57:21.442Z,102063
2016-11-12T02:57:36.748Z,102060
2016-11-12T02:57:51.911Z,102072
2016-11-12T02:58:10.046Z,102066
2016-11-12T02:58:25.488Z,102063
2016-11-12T02:58:37.908Z,102069
2016-11-12T02:58:56.105Z,102060
2016-11-12T02:59:11.347Z,102070
2016-11-12T02:59:32.264Z,102066
2016-11-12T02:59:47.762Z,102069
2016-11-12T03:00:08.911Z,102060
2016-11-12T03:00:24.062Z,102069
2016-11-12T03:00:39.153Z,102070
2016-11-12T03:00:54.500Z,102073
2016-11-12T03:01:06.711Z,102076
2016-11-12T03:01:19.221Z,102060
2016-11-12T03:01:31.583Z,102057
2016-11-12T03:01:46.862Z,102060
2016-11-12T03:02:04.927Z,102076
2016-11-12T03:02:20.230Z,102072
2016-11-12T03:02:32.651Z,102063
2016-11-12T03:02:45.140Z,102075
2016-11-12T03:03:00.360Z,102082
2016-11-12T03:03:21.401Z,102066
2016-11-12T03:03:39.574Z,102066
2016-11-12T03:03:51.992Z,102072
2016-11-12T03:04:07.216Z,102078
2016-11-12T03:04:19.502Z,102072
2016-11-12T03:04:34.691Z,102069
2016-11-12T03:04:47.125Z,102066
2016-11-12T03:04:59.341Z,102069
2016-11-12T03:05:11.800Z,102075
2016-11-12T03:05:24.145Z,102069
2016-11-12T03:05:36.345Z,102069
2016-11-12T03:05:51.683Z,102060
2016-11-12T03:06:06.884Z,102069
2016-11-12T03:06:22.120Z,102066
2016-11-12T03:06:37.414Z,102072
2016-11-12T03:06:55.674Z,102069
2016-11-12T03:07:16.553Z,102063
2016-11-12T03:07:34.658Z,102066
2016-11-12T03:07:55.491Z,102060
2016-11-12T03:08:10.756Z,102072
2016-11-12T03:08:26.325Z,102072
2016-11-12T03:08:44.406Z,102057
2016-11-12T03:08:59.675Z,102078
2016-11-12T03:09:17.934Z,102060
2016-11-12T03:09:33.111Z,102066
2016-11-12T03:09:57.059Z,102069
2016-11-12T03:10:09.538Z,102069
2016-11-12T03:10:24.797Z,102078
2016-11-12T03:10:39.896Z,102063
2016-11-12T03:10:52.292Z,102063
2016-11-12T03:11:04.561Z,102069
2016-11-12T03:11:16.828Z,102069
2016-11-12T03:11:32.190Z,102063
2016-11-12T03:11:44.594Z,102072
2016-11-12T03:11:56.928Z,102075
2016-11-12T03:12:12.192Z,102072
2016-11-12T03:12:24.745Z,102075
2016-11-12T03:12:37.067Z,102078
2016-11-12T03:12:52.451Z,102075
2016-11-12T03:13:07.753Z,102072
2016-11-12T03:13:22.898Z,102066
2016-11-12T03:13:35.260Z,102075
2016-11-12T03:13:50.609Z,102075
2016-11-12T03:14:05.885Z,102081
2016-11-12T03:14:21.190Z,102075
2016-11-12T03:14:36.594Z,102065
2016-11-12T03:14:51.689Z,102084
2016-11-12T03:15:04.028Z,102084
2016-11-12T03:15:16.335Z,102084
2016-11-12T03:15:34.520Z,102084
2016-11-12T03:15:46.896Z,102080
2016-11-12T03:15:59.318Z,102080